createdAt,value
2022-10-14T00:01:10.761Z,29.43
2022-10-14T00:03:39.130Z,32.90
2022-10-14T00:06:12.375Z,33.80
2022-10-14T00:08:40.542Z,32.90
2022-10-14T00:11:09.946Z,31.77
2022-10-14T00:13:38.113Z,32.40
2022-10-14T00:16:05.960Z,33.87
2022-10-14T00:18:32.990Z,34.47
2022-10-14T00:21:02.369Z,34.37
2022-10-14T00:23:29.213Z,35.57
2022-10-14T00:25:56.004Z,40.30
2022-10-14T00:28:22.826Z,34.27
2022-10-14T00:30:57.465Z,36.50
2022-10-14T00:33:24.787Z,35.67
2022-10-14T00:36:00.293Z,34.67
2022-10-14T00:38:27.642Z,35.37
2022-10-14T00:40:55.553Z,38.00
2022-10-14T00:43:24.067Z,33.17
2022-10-14T00:45:50.901Z,34.87
2022-10-14T00:48:20.845Z,32.90
2022-10-14T00:50:51.761Z,32.33
2022-10-14T00:53:19.361Z,34.83
2022-10-14T00:55:48.111Z,36.10
2022-10-14T00:58:16.073Z,37.53
2022-10-14T01:00:43.152Z,33.83
2022-10-14T01:03:17.484Z,35.80
2022-10-14T01:05:55.797Z,35.40
2022-10-14T01:08:36.223Z,38.20
2022-10-14T01:11:13.015Z,35.07
2022-10-14T01:13:51.373Z,31.97
2022-10-14T01:16:31.594Z,34.30
2022-10-14T01:19:48.702Z,32.87
2022-10-14T01:22:22.173Z,32.60
2022-10-14T01:25:07.999Z,33.13
2022-10-14T01:28:08.382Z,29.30
2022-10-14T01:30:45.551Z,32.40
2022-10-14T01:33:25.232Z,31.10
2022-10-14T01:36:13.959Z,31.23
2022-10-14T01:38:59.393Z,33.07
2022-10-14T01:42:03.670Z,30.50
2022-10-14T01:44:32.551Z,29.33
2022-10-14T01:47:02.203Z,32.50
2022-10-14T01:49:41.348Z,28.70
2022-10-14T01:52:22.812Z,32.67
2022-10-14T01:54:53.373Z,30.47
2022-10-14T01:57:25.029Z,28.93
2022-10-14T01:59:53.608Z,32.57
2022-10-14T02:02:21.729Z,29.43
2022-10-14T02:04:48.835Z,29.70
2022-10-14T02:07:25.999Z,27.47
2022-10-14T02:10:10.789Z,26.70
2022-10-14T02:13:12.130Z,30.20
2022-10-14T02:16:00.146Z,31.73
2022-10-14T02:18:44.835Z,27.23
2022-10-14T02:21:37.674Z,28.53
2022-10-14T02:24:21.692Z,27.33
2022-10-14T02:26:50.876Z,31.53
2022-10-14T02:29:22.644Z,31.40
2022-10-14T02:31:50.779Z,27.37
2022-10-14T02:34:21.096Z,28.33
2022-10-14T02:36:48.660Z,29.00
2022-10-14T02:39:21.392Z,28.87
2022-10-14T02:41:48.309Z,23.90
2022-10-14T02:44:16.310Z,26.53
2022-10-14T02:46:43.260Z,30.07
2022-10-14T02:49:10.263Z,27.80
2022-10-14T02:51:37.149Z,29.83
2022-10-14T02:54:03.996Z,27.70
2022-10-14T02:56:30.848Z,27.67
2022-10-14T02:58:59.229Z,27.10
2022-10-14T03:01:26.214Z,24.90
2022-10-14T03:03:54.143Z,29.57
2022-10-14T03:06:20.961Z,35.70
2022-10-14T03:08:47.833Z,28.73
2022-10-14T03:11:14.658Z,30.23
2022-10-14T03:13:41.435Z,29.03
2022-10-14T03:16:08.856Z,26.77
2022-10-14T03:18:35.716Z,28.90
2022-10-14T03:21:02.524Z,30.33
2022-10-14T03:23:29.270Z,30.50
2022-10-14T03:25:56.445Z,27.83
2022-10-14T03:28:23.448Z,31.87
2022-10-14T03:30:50.261Z,29.50
2022-10-14T03:33:20.423Z,28.67
2022-10-14T03:35:47.429Z,28.77
2022-10-14T03:38:14.316Z,30.27
2022-10-14T03:40:41.207Z,27.37
2022-10-14T03:43:08.052Z,26.90
2022-10-14T03:45:34.801Z,29.67
2022-10-14T03:48:01.630Z,25.53
2022-10-14T03:50:28.545Z,27.73
2022-10-14T03:52:55.896Z,28.13
2022-10-14T03:55:23.506Z,34.13
2022-10-14T03:57:50.204Z,35.07
2022-10-14T04:00:17.470Z,32.70
2022-10-14T04:02:44.209Z,34.80
2022-10-14T04:05:11.296Z,34.13
2022-10-14T04:07:38.348Z,36.97
2022-10-14T04:10:05.993Z,32.27
2022-10-14T04:12:33.341Z,34.10
2022-10-14T04:15:00.114Z,30.63
2022-10-14T04:17:26.905Z,34.13
2022-10-14T04:19:53.955Z,30.23
2022-10-14T04:22:22.992Z,33.07
2022-10-14T04:24:50.157Z,32.87
2022-10-14T04:27:17.776Z,29.03
2022-10-14T04:29:44.702Z,27.77
2022-10-14T04:32:11.440Z,31.87
2022-10-14T04:34:38.470Z,30.30
2022-10-14T04:37:05.245Z,37.37
2022-10-14T04:39:32.337Z,30.17
2022-10-14T04:41:59.081Z,33.80
2022-10-14T04:44:25.844Z,30.17
2022-10-14T04:46:52.692Z,30.20
2022-10-14T04:49:19.535Z,29.33
2022-10-14T04:51:46.445Z,31.07
2022-10-14T04:54:14.015Z,26.10
2022-10-14T04:56:40.852Z,29.00
2022-10-14T04:59:07.631Z,30.03
2022-10-14T05:01:34.704Z,27.97
2022-10-14T05:04:01.613Z,27.23
2022-10-14T05:06:28.457Z,26.80
2022-10-14T05:08:55.198Z,25.83
2022-10-14T05:11:22.096Z,26.37
2022-10-14T05:13:49.296Z,26.57
2022-10-14T05:16:16.279Z,22.67
2022-10-14T05:18:43.001Z,30.13
2022-10-14T05:21:09.953Z,23.53
2022-10-14T05:23:36.719Z,27.07
2022-10-14T05:26:03.716Z,19.30
2022-10-14T05:28:31.213Z,20.70
2022-10-14T05:30:58.205Z,19.47
2022-10-14T05:33:25.019Z,19.27
2022-10-14T05:35:59.193Z,20.27
2022-10-14T05:38:26.807Z,15.47
2022-10-14T05:40:55.273Z,18.07
2022-10-14T05:43:24.046Z,17.50
2022-10-14T05:45:52.751Z,19.23
2022-10-14T05:48:19.651Z,19.50
2022-10-14T05:50:46.545Z,18.17
2022-10-14T05:53:13.448Z,18.77
2022-10-14T05:55:42.394Z,18.97
2022-10-14T05:58:09.446Z,21.93
2022-10-14T06:00:36.376Z,16.70
2022-10-14T06:03:03.414Z,21.07
2022-10-14T06:05:30.266Z,19.10
2022-10-14T06:07:57.172Z,18.27
2022-10-14T06:10:23.891Z,17.57
2022-10-14T06:12:50.680Z,17.17
2022-10-14T06:15:17.632Z,18.17
2022-10-14T06:17:44.437Z,17.33
2022-10-14T06:20:11.381Z,15.87
2022-10-14T06:22:38.192Z,15.93
2022-10-14T06:25:05.395Z,15.33
2022-10-14T06:27:32.100Z,17.53
2022-10-14T06:29:58.822Z,16.50
2022-10-14T06:32:25.694Z,16.70
2022-10-14T06:34:52.511Z,17.33
2022-10-14T06:37:19.271Z,14.23
2022-10-14T06:39:46.059Z,16.23
2022-10-14T06:42:13.309Z,16.23
2022-10-14T06:44:40.227Z,16.20
2022-10-14T06:47:08.265Z,15.17
2022-10-14T06:49:36.145Z,13.50
2022-10-14T06:52:02.958Z,12.43
2022-10-14T06:54:30.004Z,14.23
2022-10-14T06:56:56.876Z,13.73
2022-10-14T06:59:23.779Z,15.57
2022-10-14T07:01:51.575Z,15.70
2022-10-14T07:04:18.412Z,14.73
2022-10-14T07:06:45.484Z,12.77
2022-10-14T07:09:12.301Z,13.67
2022-10-14T07:11:39.007Z,16.07
2022-10-14T07:14:07.468Z,13.60
2022-10-14T07:16:34.474Z,12.80
2022-10-14T07:19:01.254Z,12.43
2022-10-14T07:21:28.004Z,11.47
2022-10-14T07:23:55.557Z,13.73
2022-10-14T07:26:22.373Z,12.40
2022-10-14T07:28:49.219Z,11.77
2022-10-14T07:31:16.108Z,12.07
2022-10-14T07:33:43.157Z,12.43
2022-10-14T07:36:18.422Z,12.23
2022-10-14T07:38:48.561Z,12.80
2022-10-14T07:41:21.667Z,11.90
2022-10-14T07:43:51.761Z,11.37
2022-10-14T07:46:32.289Z,16.83
2022-10-14T07:49:07.798Z,11.27
2022-10-14T07:51:36.864Z,14.27
2022-10-14T07:54:05.878Z,11.43
2022-10-14T07:56:34.615Z,14.50
2022-10-14T07:59:01.387Z,13.00
2022-10-14T08:01:28.307Z,13.13
2022-10-14T08:03:55.409Z,15.03
2022-10-14T08:06:22.450Z,13.90
2022-10-14T08:08:49.294Z,12.17
2022-10-14T08:11:22.436Z,14.30
2022-10-14T08:13:49.917Z,11.57
2022-10-14T08:16:39.340Z,13.90
2022-10-14T08:19:14.557Z,14.67
2022-10-14T08:21:43.190Z,11.97
2022-10-14T08:24:10.780Z,11.03
2022-10-14T08:27:00.820Z,11.87
2022-10-14T08:29:27.614Z,11.87
2022-10-14T08:31:55.357Z,11.43
2022-10-14T08:34:24.298Z,12.87
2022-10-14T08:36:51.682Z,14.73
2022-10-14T08:39:19.872Z,12.17
2022-10-14T08:42:17.969Z,13.13
2022-10-14T08:45:15.692Z,13.33
2022-10-14T08:47:46.324Z,11.00
2022-10-14T08:50:23.521Z,12.13
2022-10-14T08:52:59.221Z,12.13
2022-10-14T08:55:41.997Z,16.53
2022-10-14T08:58:18.911Z,13.23
2022-10-14T09:00:49.547Z,13.47
2022-10-14T09:03:32.974Z,11.87
2022-10-14T09:06:07.145Z,12.63
2022-10-14T09:08:47.449Z,13.77
2022-10-14T09:11:19.343Z,14.40
2022-10-14T09:13:59.664Z,12.87
2022-10-14T09:16:34.732Z,13.37
2022-10-14T09:19:04.859Z,13.47
2022-10-14T09:21:53.534Z,14.00
2022-10-14T09:24:24.064Z,16.77
2022-10-14T09:27:13.700Z,13.60
2022-10-14T09:29:48.739Z,13.87
2022-10-14T09:32:41.582Z,14.60
2022-10-14T09:35:29.548Z,14.53
2022-10-14T09:37:56.524Z,13.47
2022-10-14T09:40:33.879Z,15.10
2022-10-14T09:43:11.504Z,15.80
2022-10-14T09:46:00.388Z,11.63
2022-10-14T09:48:32.217Z,13.43
2022-10-14T09:51:01.937Z,13.27
2022-10-14T09:53:33.413Z,15.97
2022-10-14T09:56:02.935Z,13.00
2022-10-14T09:58:38.184Z,13.60
2022-10-14T10:01:10.598Z,12.50
2022-10-14T10:03:41.061Z,13.53
2022-10-14T10:06:11.382Z,14.77
2022-10-14T10:08:42.180Z,13.37
2022-10-14T10:11:13.872Z,13.03
2022-10-14T10:13:46.576Z,16.03
2022-10-14T10:16:19.712Z,12.27
2022-10-14T10:18:46.708Z,11.50
2022-10-14T10:21:26.317Z,10.73
2022-10-14T10:24:11.555Z,11.27
2022-10-14T10:26:38.351Z,11.77
2022-10-14T10:29:06.151Z,10.43
2022-10-14T10:32:01.767Z,13.27
2022-10-14T10:34:40.541Z,10.63
2022-10-14T10:37:23.860Z,10.77
2022-10-14T10:40:12.570Z,11.77
2022-10-14T10:43:13.658Z,11.17
2022-10-14T10:45:43.455Z,11.07
2022-10-14T10:48:26.078Z,10.90
2022-10-14T10:51:22.599Z,10.10
2022-10-14T10:54:03.968Z,11.17
2022-10-14T10:56:52.270Z,8.97
2022-10-14T10:59:48.018Z,10.73
2022-10-14T11:02:51.905Z,10.30
2022-10-14T11:05:37.126Z,10.87
2022-10-14T11:08:29.590Z,10.33
2022-10-14T11:11:46.272Z,8.17
2022-10-14T11:14:50.554Z,8.40
2022-10-14T11:17:52.843Z,8.73
2022-10-14T11:20:29.138Z,6.80
2022-10-14T11:23:25.325Z,8.13
2022-10-14T11:26:08.287Z,8.83
2022-10-14T11:29:01.621Z,5.73
2022-10-14T11:31:51.251Z,6.53
2022-10-14T11:34:45.943Z,5.90
2022-10-14T11:37:12.629Z,6.57
2022-10-14T11:39:49.922Z,6.70
2022-10-14T11:42:25.940Z,7.20
2022-10-14T11:45:11.399Z,6.77
2022-10-14T11:47:40.915Z,7.53
2022-10-14T11:50:23.772Z,6.13
2022-10-14T11:53:01.827Z,6.00
2022-10-14T11:55:34.639Z,7.00
2022-10-14T11:58:10.294Z,7.57
2022-10-14T12:00:38.824Z,6.40
2022-10-14T12:03:26.700Z,6.20
2022-10-14T12:06:02.201Z,6.33
2022-10-14T12:08:35.652Z,7.87
2022-10-14T12:11:29.947Z,6.23
2022-10-14T12:14:13.245Z,7.83
2022-10-14T12:16:43.543Z,7.27
2022-10-14T12:19:12.663Z,8.07
2022-10-14T12:21:59.004Z,8.57
2022-10-14T12:24:31.321Z,6.60
2022-10-14T12:27:01.998Z,7.33
2022-10-14T12:29:37.298Z,7.27
2022-10-14T12:32:03.958Z,6.57
2022-10-14T12:34:36.620Z,8.53
2022-10-14T12:37:28.807Z,8.67
2022-10-14T12:40:07.039Z,7.57
2022-10-14T12:42:58.727Z,8.30
2022-10-14T12:45:28.773Z,7.93
2022-10-14T12:48:12.934Z,7.60
2022-10-14T12:50:47.070Z,6.97
2022-10-14T12:53:32.471Z,6.93
2022-10-14T12:56:04.372Z,6.90
2022-10-14T12:58:57.679Z,5.40
2022-10-14T13:01:24.671Z,5.80
2022-10-14T13:06:36.060Z,7.10
2022-10-14T13:09:11.910Z,6.50
2022-10-14T13:11:40.352Z,7.73
2022-10-14T13:14:53.415Z,8.57
2022-10-14T13:17:29.144Z,7.27
2022-10-14T13:19:56.089Z,6.93
2022-10-14T13:22:33.089Z,6.73
2022-10-14T13:25:15.204Z,6.40
2022-10-14T13:28:16.775Z,6.97
2022-10-14T13:30:57.627Z,8.93
2022-10-14T13:33:32.879Z,7.90
2022-10-14T13:36:14.064Z,8.37
2022-10-14T13:38:46.091Z,8.53
2022-10-14T13:41:30.656Z,7.83
2022-10-14T13:44:00.059Z,8.77
2022-10-14T13:46:36.823Z,9.77
2022-10-14T13:49:06.665Z,10.30
2022-10-14T13:52:15.588Z,10.43
2022-10-14T13:54:43.539Z,10.90
2022-10-14T13:57:43.075Z,13.27
2022-10-14T14:00:39.207Z,12.13
2022-10-14T14:02:53.877Z,12.50
2022-10-14T14:05:22.547Z,11.77
2022-10-14T14:08:22.176Z,14.70
2022-10-14T14:11:03.593Z,12.23
2022-10-14T14:13:28.225Z,12.90
2022-10-14T14:15:56.749Z,12.93
2022-10-14T14:18:56.013Z,12.60
2022-10-14T14:21:29.508Z,12.77
2022-10-14T14:24:03.544Z,13.83
2022-10-14T14:26:41.374Z,13.67
2022-10-14T14:29:16.999Z,13.87
2022-10-14T14:34:32.099Z,13.40
2022-10-14T14:37:10.714Z,14.53
2022-10-14T14:40:06.333Z,12.07
2022-10-14T14:42:42.231Z,12.27
2022-10-14T14:45:22.191Z,13.57
2022-10-14T14:47:51.557Z,13.73
2022-10-14T14:50:31.961Z,12.93
2022-10-14T14:53:04.456Z,13.83
2022-10-14T14:55:54.312Z,13.77
2022-10-14T14:58:43.029Z,11.67
2022-10-14T15:01:19.998Z,12.57
2022-10-14T15:04:12.287Z,12.90
2022-10-14T15:06:51.304Z,13.53
2022-10-14T15:09:33.681Z,11.53
2022-10-14T15:12:02.330Z,12.17
2022-10-14T15:14:44.039Z,11.90
2022-10-14T15:17:27.681Z,11.93
2022-10-14T15:19:56.251Z,12.83
2022-10-14T15:22:30.518Z,12.93
2022-10-14T15:25:06.770Z,12.67
2022-10-14T15:27:35.590Z,13.10
2022-10-14T15:30:23.576Z,12.10
2022-10-14T15:32:52.529Z,12.37
2022-10-14T15:35:21.401Z,11.47
2022-10-14T15:37:50.041Z,12.97
2022-10-14T15:40:23.763Z,11.63
2022-10-14T15:42:50.967Z,11.43
2022-10-14T15:45:19.119Z,11.37
2022-10-14T15:47:46.860Z,11.47
2022-10-14T15:50:21.201Z,12.00
2022-10-14T15:52:48.035Z,11.70
2022-10-14T15:55:24.404Z,10.83
2022-10-14T15:57:52.810Z,11.17
2022-10-14T16:00:21.661Z,13.23
2022-10-14T16:02:54.469Z,11.90
2022-10-14T16:05:22.503Z,12.83
2022-10-14T16:07:52.811Z,14.03
2022-10-14T16:10:21.462Z,12.70
2022-10-14T16:12:48.967Z,12.97
2022-10-14T16:15:26.215Z,12.23
2022-10-14T16:17:53.282Z,14.53
2022-10-14T16:20:21.558Z,12.93
2022-10-14T16:22:48.779Z,13.03
2022-10-14T16:25:44.968Z,11.13
2022-10-14T16:28:12.747Z,12.17
2022-10-14T16:30:41.583Z,14.23
2022-10-14T16:35:36.601Z,14.20
2022-10-14T16:38:03.759Z,12.57
2022-10-14T16:40:35.736Z,11.77
2022-10-14T16:43:04.033Z,13.93
2022-10-14T16:45:30.852Z,12.43
2022-10-14T16:47:57.856Z,12.73
2022-10-14T16:50:25.672Z,12.47
2022-10-14T16:53:11.357Z,14.33
2022-10-14T16:55:39.404Z,14.40
2022-10-14T16:58:06.410Z,13.17
2022-10-14T17:00:33.349Z,14.70
2022-10-14T17:03:00.267Z,14.93
2022-10-14T17:05:27.112Z,14.03
2022-10-14T17:07:53.870Z,11.70
2022-10-14T17:10:22.564Z,13.93
2022-10-14T17:12:49.705Z,18.40
2022-10-14T17:15:16.506Z,14.03
2022-10-14T17:17:43.225Z,14.40
2022-10-14T17:20:10.520Z,13.93
2022-10-14T17:22:37.582Z,15.67
2022-10-14T17:25:05.534Z,15.37
2022-10-14T17:27:32.295Z,14.50
2022-10-14T17:29:59.271Z,17.00
2022-10-14T17:32:28.336Z,14.00
2022-10-14T17:34:55.220Z,14.83
2022-10-14T17:37:22.270Z,16.33
2022-10-14T17:39:49.025Z,16.57
2022-10-14T17:42:16.401Z,15.67
2022-10-14T17:44:43.941Z,17.03
2022-10-14T17:47:11.263Z,17.50
2022-10-14T17:49:38.233Z,16.00
2022-10-14T17:52:06.197Z,15.67
2022-10-14T17:54:33.142Z,14.87
2022-10-14T17:57:00.071Z,15.80
2022-10-14T17:59:27.846Z,13.90
2022-10-14T18:02:03.052Z,15.13
2022-10-14T18:04:30.904Z,13.13
2022-10-14T18:06:58.740Z,16.43
2022-10-14T18:09:25.699Z,12.37
2022-10-14T18:12:09.559Z,14.47
2022-10-14T18:14:36.917Z,18.10
2022-10-14T18:17:05.429Z,13.10
2022-10-14T18:19:32.703Z,16.77
2022-10-14T18:21:59.586Z,16.60
2022-10-14T18:24:26.664Z,17.80
2022-10-14T18:26:54.763Z,20.77
2022-10-14T18:29:21.790Z,17.63
2022-10-14T18:34:17.886Z,16.93
2022-10-14T18:36:47.864Z,17.27
2022-10-14T18:39:15.514Z,17.07
2022-10-14T18:41:43.832Z,16.70
2022-10-14T18:44:10.641Z,16.50
2022-10-14T18:46:39.309Z,19.00
2022-10-14T18:49:08.740Z,17.07
2022-10-14T18:51:37.846Z,18.57
2022-10-14T18:54:19.988Z,18.47
2022-10-14T18:56:47.358Z,16.63
2022-10-14T18:59:18.070Z,19.20
2022-10-14T19:01:46.306Z,17.93
2022-10-14T19:04:15.161Z,18.77
2022-10-14T19:06:47.097Z,19.63
2022-10-14T19:09:14.593Z,18.27
2022-10-14T19:11:42.064Z,19.07
2022-10-14T19:14:10.041Z,23.83
2022-10-14T19:16:38.680Z,17.33
2022-10-14T19:19:12.066Z,20.33
2022-10-14T19:21:39.463Z,20.53
2022-10-14T19:24:08.211Z,18.23
2022-10-14T19:26:37.125Z,19.50
2022-10-14T19:29:08.977Z,19.30
2022-10-14T19:31:39.109Z,19.03
2022-10-14T19:34:10.199Z,20.70
2022-10-14T19:36:39.720Z,20.97
2022-10-14T19:39:09.714Z,22.20
2022-10-14T19:41:43.209Z,16.60
2022-10-14T19:44:11.780Z,19.37
2022-10-14T19:46:38.924Z,18.70
2022-10-14T19:49:06.539Z,19.50
2022-10-14T19:51:36.248Z,19.53
2022-10-14T19:54:03.851Z,17.90
2022-10-14T19:56:30.843Z,20.13
2022-10-14T19:58:59.493Z,19.93
2022-10-14T20:01:31.392Z,18.60
2022-10-14T20:04:02.144Z,18.53
2022-10-14T20:06:32.796Z,20.63
2022-10-14T20:08:59.727Z,21.57
2022-10-14T20:11:26.790Z,18.97
2022-10-14T20:13:53.709Z,15.20
2022-10-14T20:16:20.752Z,16.93
2022-10-14T20:18:47.833Z,18.73
2022-10-14T20:21:16.316Z,18.23
2022-10-14T20:23:43.921Z,17.57
2022-10-14T20:26:20.105Z,18.73
2022-10-14T20:28:48.002Z,20.67
2022-10-14T20:31:17.827Z,15.50
2022-10-14T20:33:44.823Z,17.83
2022-10-14T20:36:20.359Z,18.17
2022-10-14T20:38:48.246Z,18.17
2022-10-14T20:41:17.108Z,15.53
2022-10-14T20:43:47.492Z,17.47
2022-10-14T20:46:15.302Z,19.33
2022-10-14T20:48:42.476Z,17.43
2022-10-14T20:51:15.339Z,15.70
2022-10-14T20:53:42.392Z,14.93
2022-10-14T20:56:11.382Z,19.33
2022-10-14T20:58:39.024Z,13.83
2022-10-14T21:01:09.541Z,13.63
2022-10-14T21:03:36.473Z,14.30
2022-10-14T21:06:05.840Z,19.43
2022-10-14T21:08:33.113Z,17.60
2022-10-14T21:11:07.060Z,18.73
2022-10-14T21:13:36.841Z,18.67
2022-10-14T21:16:14.245Z,16.47
2022-10-14T21:18:44.384Z,20.50
2022-10-14T21:21:14.341Z,17.93
2022-10-14T21:23:43.972Z,16.03
2022-10-14T21:26:11.202Z,17.80
2022-10-14T21:28:38.040Z,17.30
2022-10-14T21:31:10.086Z,18.40
2022-10-14T21:33:37.039Z,21.00
2022-10-14T21:36:10.348Z,19.30
2022-10-14T21:38:37.613Z,18.40
2022-10-14T21:41:05.801Z,17.50
2022-10-14T21:43:34.985Z,21.43
2022-10-14T21:46:08.256Z,19.63
2022-10-14T21:48:35.288Z,18.20
2022-10-14T21:51:06.964Z,17.83
2022-10-14T21:53:34.752Z,19.70
2022-10-14T21:56:02.273Z,18.87
2022-10-14T21:58:29.329Z,19.07
2022-10-14T22:01:13.156Z,19.03
2022-10-14T22:03:40.913Z,23.27
2022-10-14T22:06:14.272Z,21.87
2022-10-14T22:08:44.180Z,21.03
2022-10-14T22:11:26.174Z,21.00
2022-10-14T22:13:56.900Z,19.50
2022-10-14T22:16:24.522Z,18.87
2022-10-14T22:18:53.791Z,21.90
2022-10-14T22:21:22.811Z,21.93
2022-10-14T22:23:50.525Z,20.57
2022-10-14T22:26:20.222Z,21.63
2022-10-14T22:28:51.160Z,22.17
2022-10-14T22:31:20.689Z,21.00
2022-10-14T22:33:48.360Z,22.00
2022-10-14T22:36:22.536Z,20.50
2022-10-14T22:38:52.646Z,20.17
2022-10-14T22:41:20.809Z,19.67
2022-10-14T22:43:50.100Z,20.87
2022-10-14T22:46:21.141Z,22.67
2022-10-14T22:48:49.594Z,26.93
2022-10-14T22:51:19.018Z,18.67
2022-10-14T22:53:46.727Z,21.07
2022-10-14T22:56:17.345Z,20.03
2022-10-14T22:58:44.338Z,19.83
2022-10-14T23:01:13.826Z,20.87
2022-10-14T23:03:41.749Z,25.57
2022-10-14T23:06:11.513Z,20.07
2022-10-14T23:08:40.001Z,20.60
2022-10-14T23:11:07.410Z,22.37
2022-10-14T23:13:35.601Z,21.70
2022-10-14T23:16:07.775Z,19.90
2022-10-14T23:18:37.896Z,21.27
2022-10-14T23:21:16.241Z,21.63
2022-10-14T23:23:44.035Z,18.80
2022-10-14T23:26:13.062Z,19.17
2022-10-14T23:28:40.308Z,21.77
2022-10-14T23:31:15.480Z,20.27
2022-10-14T23:33:42.807Z,18.23
2022-10-14T23:36:11.692Z,20.33
2022-10-14T23:38:39.858Z,26.97
2022-10-14T23:41:08.484Z,20.00
2022-10-14T23:43:36.341Z,22.17
2022-10-14T23:46:03.407Z,19.67
2022-10-14T23:48:30.429Z,21.73
2022-10-14T23:50:57.710Z,19.97
2022-10-14T23:53:26.431Z,19.07
2022-10-14T23:55:53.984Z,22.27
2022-10-14T23:58:20.849Z,21.63
